Flinterborg — PHPH — position and weather

sailwx.info

Track history (hours):
 
Tides and Currents Weather Stations Pressure Air Temp Water Temp Dewpoint Dewpoint Depression Visibility Wind Speed Wind Dir Waves Ship Positions

Flinterborg

Last reported at 2017-Mar-15 01:32 UTC. Time now 2017-Mar-23 23:57 UTC.
Position N 39°37' W 010°13'.
Warning: this ship's position is 8 days out of date.

Length 111 m; draft 6.3 m.

Type: Ship. MMSI: 245433000.

Date/timePositionNaut miles runAvg speedWind from/ knotsBaromVisibWave heightAir tempDewpointWater temp
2017-Mar-15 01:32N 39°37' W 010°13'10 9.6
2017-Mar-15 00:30N 39°27' W 010°10'10 9.8
2017-Mar-14 23:32N 39°19' W 010°03'10 9.8
2017-Mar-14 22:33N 39°10' W 009°59'10 9.7
2017-Mar-14 21:33N 39°01' W 009°56'10 9.7
2017-Mar-14 20:33N 38°52' W 009°52'10 9.7
2017-Mar-14 19:33N 38°42' W 009°50'10 9.7
2017-Mar-14 18:33N 38°33' W 009°47'10 9.7
2017-Mar-14 17:33N 38°23' W 009°44'10 9.8
2017-Mar-14 16:33N 38°14' W 009°42'237 8.7
2017-Mar-13 13:26N 35°58' W 005°38'8 9.6
2017-Mar-13 12:33N 36°00' W 005°28'9 9.5
2017-Mar-13 11:33N 36°09' W 005°22'0 0.2
2017-Mar-13 10:32N 36°09' W 005°22'0 0.0
2017-Mar-13 09:31N 36°09' W 005°22'0 0.0
2017-Mar-13 08:31N 36°09' W 005°22'0 0.0
2017-Mar-13 07:33N 36°09' W 005°22'0 0.0
2017-Mar-13 06:33N 36°09' W 005°22'0 0.0
2017-Mar-13 05:32N 36°09' W 005°22'0 0.5
2017-Mar-13 04:33N 36°09' W 005°22'4 3.7
2017-Mar-13 03:33N 36°06' W 005°19'7 7.3
2017-Mar-13 02:33N 36°10' W 005°12'1 1.1
2017-Mar-13 01:33N 36°10' W 005°13'1 0.8
2017-Mar-13 00:33N 36°10' W 005°14'0 0.4
2017-Mar-12 23:33N 36°10' W 005°15'3 3.4
2017-Mar-12 22:33N 36°07' W 005°13'1 1.3
2017-Mar-12 21:33N 36°06' W 005°13'1 1.3
2017-Mar-12 20:33N 36°07' W 005°13'1 1.3
2017-Mar-12 19:33N 36°09' W 005°13'1 1.2
2017-Mar-12 18:33N 36°10' W 005°14'1 1.0
2017-Mar-12 17:33N 36°10' W 005°14'9 9.0
2017-Mar-12 16:33N 36°08' W 005°03'3 2.4
2017-Mar-12 15:31N 36°08' W 005°07'3 2.5
2017-Mar-12 14:30N 36°08' W 005°10'2 1.9
2017-Mar-12 13:33N 36°08' W 005°12'1 1.3
2017-Mar-12 12:31N 36°08' W 005°14'1 0.9
2017-Mar-12 11:33N 36°08' W 005°14'4 3.9
2017-Mar-12 10:33N 36°07' W 005°10'9 8.5
2017-Mar-12 09:31N 36°07' W 004°59'58 9.0
2017-Mar-12 03:05N 36°12' W 003°47'18910.8
2017-Mar-11 09:30N 36°42' E 000°05'1310.4
2017-Mar-11 08:14N 36°42' E 000°21'  
Track history (hours):
 
Tides and Currents Weather Stations Pressure Air Temp Water Temp Dewpoint Dewpoint Depression Visibility Wind Speed Wind Dir Waves Ship Positions

Flinterborg

Last reported at 2017-Mar-15 01:32 UTC. Time now 2017-Mar-23 23:57 UTC.
Position N 39°37' W 010°13'.
Warning: this ship's position is 8 days out of date.

Length 111 m; draft 6.3 m.

Type: Ship. MMSI: 245433000.

Date/timePositionNaut miles runAvg speedWind from/ knotsBaromVisibWave heightAir tempDewpointWater temp
2017-Mar-15 01:32N 39°37' W 010°13'10 9.6
2017-Mar-15 00:30N 39°27' W 010°10'10 9.8
2017-Mar-14 23:32N 39°19' W 010°03'10 9.8
2017-Mar-14 22:33N 39°10' W 009°59'10 9.7
2017-Mar-14 21:33N 39°01' W 009°56'10 9.7
2017-Mar-14 20:33N 38°52' W 009°52'10 9.7
2017-Mar-14 19:33N 38°42' W 009°50'10 9.7
2017-Mar-14 18:33N 38°33' W 009°47'10 9.7
2017-Mar-14 17:33N 38°23' W 009°44'10 9.8
2017-Mar-14 16:33N 38°14' W 009°42'237 8.7
2017-Mar-13 13:26N 35°58' W 005°38'8 9.6
2017-Mar-13 12:33N 36°00' W 005°28'9 9.5
2017-Mar-13 11:33N 36°09' W 005°22'0 0.2
2017-Mar-13 10:32N 36°09' W 005°22'0 0.0
2017-Mar-13 09:31N 36°09' W 005°22'0 0.0
2017-Mar-13 08:31N 36°09' W 005°22'0 0.0
2017-Mar-13 07:33N 36°09' W 005°22'0 0.0
2017-Mar-13 06:33N 36°09' W 005°22'0 0.0
2017-Mar-13 05:32N 36°09' W 005°22'0 0.5
2017-Mar-13 04:33N 36°09' W 005°22'4 3.7
2017-Mar-13 03:33N 36°06' W 005°19'7 7.3
2017-Mar-13 02:33N 36°10' W 005°12'1 1.1
2017-Mar-13 01:33N 36°10' W 005°13'1 0.8
2017-Mar-13 00:33N 36°10' W 005°14'0 0.4
2017-Mar-12 23:33N 36°10' W 005°15'3 3.4
2017-Mar-12 22:33N 36°07' W 005°13'1 1.3
2017-Mar-12 21:33N 36°06' W 005°13'1 1.3
2017-Mar-12 20:33N 36°07' W 005°13'1 1.3
2017-Mar-12 19:33N 36°09' W 005°13'1 1.2
2017-Mar-12 18:33N 36°10' W 005°14'1 1.0
2017-Mar-12 17:33N 36°10' W 005°14'9 9.0
2017-Mar-12 16:33N 36°08' W 005°03'3 2.4
2017-Mar-12 15:31N 36°08' W 005°07'3 2.5
2017-Mar-12 14:30N 36°08' W 005°10'2 1.9
2017-Mar-12 13:33N 36°08' W 005°12'1 1.3
2017-Mar-12 12:31N 36°08' W 005°14'1 0.9
2017-Mar-12 11:33N 36°08' W 005°14'4 3.9
2017-Mar-12 10:33N 36°07' W 005°10'9 8.5
2017-Mar-12 09:31N 36°07' W 004°59'58 9.0
2017-Mar-12 03:05N 36°12' W 003°47'18910.8
2017-Mar-11 09:30N 36°42' E 000°05'1310.4
2017-Mar-11 08:14N 36°42' E 000°21'  

Dump ship's entire track history